createdAt,value
2023-11-28T00:01:56.328Z,13.77
2023-11-28T00:04:23.850Z,14.65
2023-11-28T00:06:51.710Z,15.05
2023-11-28T00:09:20.407Z,14.20
2023-11-28T00:11:47.658Z,13.55
2023-11-28T00:14:15.042Z,16.60
2023-11-28T00:16:42.476Z,14.85
2023-11-28T00:19:09.913Z,14.30
2023-11-28T00:21:37.253Z,13.02
2023-11-28T00:24:04.957Z,13.65
2023-11-28T00:26:33.689Z,18.90
2023-11-28T00:31:28.264Z,11.45
2023-11-28T00:33:55.589Z,12.43
2023-11-28T00:36:22.903Z,13.52
2023-11-28T00:38:50.203Z,11.60
2023-11-28T00:41:17.509Z,12.20
2023-11-28T00:43:46.161Z,13.85
2023-11-28T00:46:13.501Z,12.60
2023-11-28T00:48:40.807Z,15.23
2023-11-28T00:51:08.900Z,11.15
2023-11-28T00:53:36.141Z,11.82
2023-11-28T00:56:03.743Z,13.48
2023-11-28T00:58:31.039Z,12.25
2023-11-28T01:00:59.771Z,13.07
2023-11-28T01:05:54.160Z,10.82
2023-11-28T01:08:21.434Z,11.45
2023-11-28T01:10:48.762Z,12.93
2023-11-28T01:13:16.083Z,11.65
2023-11-28T01:15:43.416Z,13.05
2023-11-28T01:18:12.060Z,13.77
2023-11-28T01:20:41.376Z,14.38
2023-11-28T01:23:08.731Z,10.00
2023-11-28T01:25:36.185Z,11.85
2023-11-28T01:28:03.614Z,13.52
2023-11-28T01:30:30.984Z,13.40
2023-11-28T01:32:58.284Z,11.43
2023-11-28T01:35:26.943Z,12.98
2023-11-28T01:37:55.920Z,13.25
2023-11-28T01:40:24.339Z,13.50
2023-11-28T01:42:51.667Z,12.20
2023-11-28T01:45:18.991Z,13.23
2023-11-28T01:47:46.298Z,13.00
2023-11-28T01:50:13.597Z,13.07
2023-11-28T01:52:42.817Z,15.23
2023-11-28T01:55:10.731Z,14.90
2023-11-28T01:57:38.416Z,13.50
2023-11-28T02:00:08.146Z,13.07
2023-11-28T02:02:36.356Z,11.88
2023-11-28T02:05:04.143Z,12.43
2023-11-28T02:07:31.614Z,12.35
2023-11-28T02:10:00.297Z,15.32
2023-11-28T02:12:28.653Z,13.85
2023-11-28T02:14:56.116Z,13.73
2023-11-28T02:17:23.530Z,14.65
2023-11-28T02:19:50.830Z,12.68
2023-11-28T02:22:18.834Z,11.65
2023-11-28T02:24:48.173Z,10.23
2023-11-28T02:27:16.966Z,13.35
2023-11-28T02:32:12.852Z,11.20
2023-11-28T02:34:40.660Z,13.50
2023-11-28T02:37:07.993Z,15.57
2023-11-28T02:39:35.331Z,11.43
2023-11-28T02:42:02.610Z,13.05
2023-11-28T02:44:31.286Z,13.15
2023-11-28T02:46:58.597Z,12.75
2023-11-28T02:49:25.996Z,9.77
2023-11-28T02:51:53.309Z,13.65
2023-11-28T02:54:20.538Z,13.80
2023-11-28T02:56:47.998Z,12.77
2023-11-28T02:59:15.331Z,11.77
2023-11-28T03:01:44.117Z,11.13
2023-11-28T03:04:11.499Z,16.48
2023-11-28T03:06:38.771Z,13.43
2023-11-28T03:09:06.040Z,11.63
2023-11-28T03:11:33.260Z,10.02
2023-11-28T03:14:00.534Z,11.43
2023-11-28T03:16:27.824Z,10.65
2023-11-28T03:18:56.602Z,10.90
2023-11-28T03:23:50.900Z,9.35
2023-11-28T03:26:18.162Z,8.50
2023-11-28T03:28:45.491Z,9.15
2023-11-28T03:31:12.718Z,11.27
2023-11-28T03:33:39.994Z,9.82
2023-11-28T03:36:16.498Z,8.38
2023-11-28T03:38:46.716Z,8.55
2023-11-28T03:41:14.043Z,9.18
2023-11-28T03:43:41.379Z,6.55
2023-11-28T03:46:08.711Z,7.15
2023-11-28T03:48:35.963Z,7.72
2023-11-28T03:51:03.273Z,6.10
2023-11-28T03:53:32.061Z,8.57
2023-11-28T03:58:32.223Z,7.32
2023-11-28T04:00:59.497Z,8.73
2023-11-28T04:03:26.880Z,8.93
2023-11-28T04:05:54.193Z,7.35
2023-11-28T04:08:21.509Z,8.85
2023-11-28T04:10:50.343Z,9.40
2023-11-28T04:15:44.889Z,5.10
2023-11-28T04:18:12.405Z,9.38
2023-11-28T04:20:39.995Z,7.80
2023-11-28T04:23:07.638Z,9.18
2023-11-28T04:25:35.097Z,6.70
2023-11-28T04:28:03.837Z,10.13
2023-11-28T04:30:31.270Z,10.02
2023-11-28T04:32:58.629Z,8.07
2023-11-28T04:35:25.981Z,7.25
2023-11-28T04:37:53.316Z,7.60
2023-11-28T04:40:20.651Z,9.40
2023-11-28T04:42:47.899Z,8.13
2023-11-28T04:45:16.478Z,7.78
2023-11-28T04:47:43.806Z,8.77
2023-11-28T04:50:11.201Z,8.32
2023-11-28T04:52:38.501Z,9.35
2023-11-28T04:55:06.202Z,7.75
2023-11-28T04:57:33.457Z,8.73
2023-11-28T05:00:00.781Z,7.68
2023-11-28T05:02:29.544Z,7.25
2023-11-28T05:07:23.876Z,6.63
2023-11-28T05:09:51.182Z,11.85
2023-11-28T05:12:18.645Z,6.97
2023-11-28T05:14:45.961Z,7.80
2023-11-28T05:17:13.287Z,8.80
2023-11-28T05:19:42.010Z,6.57
2023-11-28T05:22:09.285Z,7.22
2023-11-28T05:24:36.608Z,8.68
2023-11-28T05:27:03.868Z,7.30
2023-11-28T05:29:31.199Z,6.10
2023-11-28T05:31:58.507Z,7.53
2023-11-28T05:34:26.089Z,8.63
2023-11-28T05:36:54.798Z,8.25
2023-11-28T05:39:22.129Z,8.05
2023-11-28T05:41:49.412Z,10.02
2023-11-28T05:44:16.909Z,10.10
2023-11-28T05:46:44.353Z,10.70
2023-11-28T05:49:11.653Z,9.18
2023-11-28T05:51:38.932Z,8.85
2023-11-28T05:54:08.205Z,7.20
2023-11-28T05:56:35.511Z,12.77
2023-11-28T05:59:02.780Z,13.10
2023-11-28T06:01:30.109Z,12.23
2023-11-28T06:03:57.495Z,8.45
2023-11-28T06:06:24.795Z,9.93
2023-11-28T06:08:52.098Z,7.60
2023-11-28T06:11:20.792Z,14.10
2023-11-28T06:13:48.179Z,8.10
2023-11-28T06:16:15.606Z,9.95
2023-11-28T06:18:42.942Z,8.50
2023-11-28T06:21:10.263Z,6.50
2023-11-28T06:23:37.633Z,10.70
2023-11-28T06:26:05.484Z,9.93
2023-11-28T06:28:34.198Z,10.23
2023-11-28T06:31:01.595Z,8.15
2023-11-28T06:33:28.849Z,10.05
2023-11-28T06:35:56.154Z,11.13
2023-11-28T06:38:23.493Z,7.80
2023-11-28T06:40:50.986Z,10.13
2023-11-28T06:43:18.275Z,10.55
2023-11-28T06:45:46.963Z,12.75
2023-11-28T06:48:14.374Z,10.82
2023-11-28T06:50:41.762Z,10.95
2023-11-28T06:53:09.128Z,13.05
2023-11-28T06:55:36.447Z,12.32
2023-11-28T06:58:03.774Z,12.38
2023-11-28T07:00:31.079Z,10.70
2023-11-28T07:02:59.931Z,13.32
2023-11-28T07:05:27.218Z,13.55
2023-11-28T07:07:54.573Z,13.07
2023-11-28T07:10:22.193Z,10.40
2023-11-28T07:12:49.524Z,14.25
2023-11-28T07:15:16.855Z,12.95
2023-11-28T07:17:44.163Z,14.15
2023-11-28T07:20:13.327Z,13.57
2023-11-28T07:22:40.667Z,14.73
2023-11-28T07:25:08.800Z,15.40
2023-11-28T07:27:36.110Z,12.40
2023-11-28T07:30:03.678Z,13.52
2023-11-28T07:32:31.062Z,14.75
2023-11-28T07:34:58.597Z,12.68
2023-11-28T07:37:27.305Z,14.32
2023-11-28T07:39:54.547Z,13.45
2023-11-28T07:42:21.856Z,11.57
2023-11-28T07:44:49.199Z,10.85
2023-11-28T07:47:17.275Z,10.27
2023-11-28T07:49:44.729Z,13.88
2023-11-28T07:52:12.200Z,12.23
2023-11-28T07:54:40.875Z,14.32
2023-11-28T07:57:08.124Z,15.48
2023-11-28T07:59:35.455Z,15.48
2023-11-28T08:02:02.851Z,12.63
2023-11-28T08:04:30.270Z,15.05
2023-11-28T08:06:57.621Z,8.63
2023-11-28T08:09:24.859Z,15.02
2023-11-28T08:11:53.513Z,15.90
2023-11-28T08:14:21.985Z,15.18
2023-11-28T08:16:50.142Z,13.35
2023-11-28T08:19:17.746Z,12.55
2023-11-28T08:21:45.189Z,12.65
2023-11-28T08:24:12.495Z,10.13
2023-11-28T08:26:39.809Z,12.27
2023-11-28T08:29:08.496Z,15.20
2023-11-28T08:31:35.813Z,16.80
2023-11-28T08:34:03.092Z,11.60
2023-11-28T08:36:30.423Z,13.05
2023-11-28T08:38:57.677Z,8.93
2023-11-28T08:41:25.228Z,11.80
2023-11-28T08:43:52.733Z,12.57
2023-11-28T08:46:23.247Z,12.18
2023-11-28T08:48:50.812Z,13.95
2023-11-28T08:51:18.120Z,12.20
2023-11-28T08:53:45.687Z,11.48
2023-11-28T08:56:13.170Z,14.13
2023-11-28T08:58:40.492Z,13.93
2023-11-28T09:01:08.275Z,13.20
2023-11-28T09:03:37.020Z,9.82
2023-11-28T09:08:31.884Z,11.18
2023-11-28T09:10:59.353Z,11.80
2023-11-28T09:13:29.528Z,11.65
2023-11-28T09:15:57.057Z,8.95
2023-11-28T09:18:24.393Z,11.60
2023-11-28T09:20:53.098Z,14.38
2023-11-28T09:23:20.438Z,12.77
2023-11-28T09:25:53.086Z,11.48
2023-11-28T09:28:27.665Z,10.40
2023-11-28T09:30:55.019Z,10.27
2023-11-28T09:33:22.512Z,10.48
2023-11-28T09:35:49.905Z,12.82
2023-11-28T09:38:18.733Z,11.77
2023-11-28T09:40:46.608Z,10.88
2023-11-28T09:43:14.802Z,11.38
2023-11-28T09:45:42.296Z,11.48
2023-11-28T09:48:14.341Z,11.38
2023-11-28T09:50:45.325Z,15.77
2023-11-28T09:53:14.505Z,10.30
2023-11-28T09:55:44.859Z,9.70
2023-11-28T09:58:14.084Z,10.50
2023-11-28T10:00:41.930Z,10.52
2023-11-28T10:03:09.560Z,9.25
2023-11-28T10:05:36.893Z,7.60
2023-11-28T10:08:08.891Z,7.20
2023-11-28T10:10:40.028Z,9.00
2023-11-28T10:13:08.696Z,8.70
2023-11-28T10:15:35.939Z,8.93
2023-11-28T10:18:03.265Z,12.65
2023-11-28T10:20:30.657Z,7.90
2023-11-28T10:22:58.031Z,8.85
2023-11-28T10:25:27.232Z,9.98
2023-11-28T10:27:55.135Z,10.15
2023-11-28T10:30:23.741Z,7.97
2023-11-28T10:32:51.107Z,7.90
2023-11-28T10:35:18.548Z,7.85
2023-11-28T10:37:46.054Z,10.07
2023-11-28T10:40:13.645Z,9.80
2023-11-28T10:42:42.240Z,7.70
2023-11-28T10:45:10.853Z,8.57
2023-11-28T10:47:40.172Z,9.07
2023-11-28T10:50:09.398Z,7.53
2023-11-28T10:52:38.182Z,8.20
2023-11-28T10:57:40.000Z,7.13
2023-11-28T11:00:10.178Z,8.75
2023-11-28T11:02:39.051Z,8.63
2023-11-28T11:05:07.554Z,7.45
2023-11-28T11:07:35.571Z,8.07
2023-11-28T11:10:05.169Z,8.75
2023-11-28T11:12:33.312Z,8.68
2023-11-28T11:15:07.959Z,8.93
2023-11-28T11:17:44.248Z,8.38
2023-11-28T11:20:13.878Z,7.63
2023-11-28T11:22:45.660Z,7.55
2023-11-28T11:25:12.977Z,6.97
2023-11-28T11:27:40.255Z,7.60
2023-11-28T11:30:08.642Z,9.70
2023-11-28T11:32:36.226Z,8.63
2023-11-28T11:35:08.198Z,7.85
2023-11-28T11:37:35.508Z,6.68
2023-11-28T11:40:03.627Z,7.18
2023-11-28T11:42:32.556Z,6.15
2023-11-28T11:45:02.440Z,6.68
2023-11-28T11:47:32.056Z,6.97
2023-11-28T11:50:00.576Z,6.40
2023-11-28T11:52:29.526Z,9.23
2023-11-28T11:55:04.814Z,6.57
2023-11-28T11:57:32.478Z,8.95
2023-11-28T11:59:59.964Z,7.93
2023-11-28T12:02:36.468Z,6.53
2023-11-28T12:05:06.936Z,11.05
2023-11-28T12:07:36.001Z,8.82
2023-11-28T12:12:33.567Z,6.65
2023-11-28T12:15:01.264Z,8.57
2023-11-28T12:17:28.712Z,6.15
2023-11-28T12:19:56.048Z,7.60
2023-11-28T12:22:23.527Z,7.45
2023-11-28T12:24:52.140Z,10.32
2023-11-28T12:27:21.006Z,8.63
2023-11-28T12:29:48.691Z,8.82
2023-11-28T12:32:16.179Z,7.70
2023-11-28T12:34:43.975Z,6.90
2023-11-28T12:37:11.350Z,7.15
2023-11-28T12:39:40.144Z,5.72
2023-11-28T12:42:08.911Z,7.90
2023-11-28T12:44:36.630Z,6.80
2023-11-28T12:47:05.281Z,6.95
2023-11-28T12:52:00.964Z,6.78
2023-11-28T12:54:28.212Z,7.97
2023-11-28T12:56:58.374Z,7.50
2023-11-28T12:59:27.432Z,6.85
2023-11-28T13:01:56.981Z,6.63
2023-11-28T13:04:25.561Z,8.00
2023-11-28T13:07:05.089Z,6.95
2023-11-28T13:09:40.309Z,8.20
2023-11-28T13:12:08.311Z,6.97
2023-11-28T13:14:37.477Z,7.95
2023-11-28T13:17:07.963Z,6.80
2023-11-28T13:19:35.937Z,8.43
2023-11-28T13:22:03.425Z,8.55
2023-11-28T13:24:30.736Z,9.10
2023-11-28T13:26:57.977Z,6.75
2023-11-28T13:29:25.380Z,7.38
2023-11-28T13:31:54.660Z,8.48
2023-11-28T13:34:22.010Z,8.50
2023-11-28T13:36:49.301Z,8.02
2023-11-28T13:39:16.582Z,8.52
2023-11-28T13:41:45.118Z,7.82
2023-11-28T13:44:12.451Z,7.18
2023-11-28T13:46:39.928Z,7.95
2023-11-28T13:49:08.674Z,6.80
2023-11-28T13:54:03.075Z,7.50
2023-11-28T13:56:30.381Z,8.93
2023-11-28T13:59:18.968Z,8.32
2023-11-28T14:01:46.700Z,6.90
2023-11-28T14:04:15.690Z,10.07
2023-11-28T14:06:43.094Z,8.07
2023-11-28T14:09:10.313Z,7.72
2023-11-28T14:11:37.656Z,9.00
2023-11-28T14:14:05.027Z,8.00
2023-11-28T14:16:33.752Z,8.05
2023-11-28T14:21:29.494Z,7.13
2023-11-28T14:26:23.872Z,7.03
2023-11-28T14:28:51.162Z,12.27
2023-11-28T14:31:18.521Z,8.32
2023-11-28T14:33:45.830Z,9.52
2023-11-28T14:36:13.722Z,9.25
2023-11-28T14:38:42.502Z,8.77
2023-11-28T14:46:04.749Z,8.30
2023-11-28T14:48:32.017Z,7.53
2023-11-28T14:50:59.351Z,10.52
2023-11-28T14:53:26.669Z,7.95
2023-11-28T14:55:55.518Z,8.25
2023-11-28T14:58:22.935Z,9.55
2023-11-28T15:00:51.121Z,8.07
2023-11-28T15:03:18.774Z,9.18
2023-11-28T15:05:46.210Z,8.68
2023-11-28T15:08:13.601Z,10.35
2023-11-28T15:10:40.972Z,9.60
2023-11-28T15:13:09.759Z,10.15
2023-11-28T15:18:04.216Z,11.77
2023-11-28T15:20:31.660Z,15.63
2023-11-28T15:22:59.089Z,12.73
2023-11-28T15:25:26.433Z,10.52
2023-11-28T15:27:53.867Z,11.15
2023-11-28T15:30:22.577Z,10.18
2023-11-28T15:32:49.950Z,10.70
2023-11-28T15:35:17.339Z,10.85
2023-11-28T15:37:44.596Z,11.80
2023-11-28T15:40:12.312Z,12.10
2023-11-28T15:42:39.641Z,11.45
2023-11-28T15:45:08.220Z,11.55
2023-11-28T15:47:37.051Z,13.23
2023-11-28T15:52:31.988Z,11.93
2023-11-28T15:54:59.644Z,13.88
2023-11-28T15:57:27.117Z,12.70
2023-11-28T15:59:54.596Z,12.30
2023-11-28T16:02:21.908Z,13.75
2023-11-28T16:04:50.785Z,15.35
2023-11-28T16:09:45.301Z,11.25
2023-11-28T16:12:12.748Z,13.75
2023-11-28T16:14:40.064Z,13.80
2023-11-28T16:17:07.659Z,14.70
2023-11-28T16:19:35.237Z,15.30
2023-11-28T16:22:04.209Z,18.60
2023-11-28T16:24:31.623Z,16.48
2023-11-28T16:26:59.033Z,18.33
2023-11-28T16:29:26.344Z,19.27
2023-11-28T16:31:53.663Z,17.33
2023-11-28T16:34:21.009Z,18.25
2023-11-28T16:36:48.320Z,18.63
2023-11-28T16:39:17.152Z,18.58
2023-11-28T16:41:44.531Z,23.48
2023-11-28T16:44:12.091Z,20.80
2023-11-28T16:46:39.539Z,20.83
2023-11-28T16:49:08.258Z,19.15
2023-11-28T16:51:37.081Z,17.15
2023-11-28T16:54:04.441Z,21.13
2023-11-28T16:56:33.175Z,23.52
2023-11-28T16:59:00.602Z,22.92
2023-11-28T17:01:27.948Z,25.42
2023-11-28T17:03:55.305Z,23.92
2023-11-28T17:06:22.616Z,25.58
2023-11-28T17:08:49.947Z,25.50
2023-11-28T17:11:18.915Z,23.70
2023-11-28T17:13:47.673Z,28.23
2023-11-28T17:16:14.991Z,26.90
2023-11-28T17:18:42.417Z,27.05
2023-11-28T17:21:16.471Z,26.02
2023-11-28T17:23:43.766Z,29.48
2023-11-28T17:26:11.087Z,31.65
2023-11-28T17:28:38.417Z,29.20
2023-11-28T17:31:07.348Z,28.88
2023-11-28T17:33:34.651Z,27.42
2023-11-28T17:36:02.017Z,25.92
2023-11-28T17:38:29.402Z,23.85
2023-11-28T17:40:56.756Z,23.27
2023-11-28T17:43:25.195Z,31.65
2023-11-28T17:45:52.456Z,35.20
2023-11-28T17:48:21.231Z,42.25
2023-11-28T17:50:48.519Z,27.27
2023-11-28T17:53:15.807Z,28.92
2023-11-28T17:55:43.100Z,25.13
2023-11-28T17:58:10.389Z,30.02
2023-11-28T18:00:37.695Z,29.75
2023-11-28T18:03:05.108Z,26.33
2023-11-28T18:05:33.870Z,30.80
2023-11-28T18:08:02.507Z,38.78
2023-11-28T18:10:29.860Z,29.35
2023-11-28T18:12:57.155Z,29.20
2023-11-28T18:15:29.568Z,29.15
2023-11-28T18:18:01.047Z,29.83
2023-11-28T18:20:28.772Z,35.13
2023-11-28T18:22:57.524Z,36.63
2023-11-28T18:25:24.782Z,39.65
2023-11-28T18:27:52.008Z,32.08
2023-11-28T18:30:19.315Z,33.33
2023-11-28T18:32:47.050Z,36.17
2023-11-28T18:35:14.601Z,32.40
2023-11-28T18:37:41.838Z,38.30
2023-11-28T18:40:11.073Z,34.55
2023-11-28T18:42:38.414Z,30.80
2023-11-28T18:45:06.968Z,27.67
2023-11-28T18:47:34.315Z,28.58
2023-11-28T18:50:01.776Z,28.33
2023-11-28T18:52:29.072Z,29.35
2023-11-28T18:54:56.306Z,33.50
2023-11-28T18:57:25.012Z,26.67
2023-11-28T18:59:52.255Z,34.30
2023-11-28T19:02:19.744Z,29.58
2023-11-28T19:04:47.089Z,31.83
2023-11-28T19:07:14.326Z,30.55
2023-11-28T19:09:41.564Z,28.10
2023-11-28T19:12:09.035Z,28.13
2023-11-28T19:14:37.701Z,24.42
2023-11-28T19:17:05.027Z,32.85
2023-11-28T19:19:32.314Z,47.10
2023-11-28T19:21:59.596Z,36.00
2023-11-28T19:24:26.822Z,34.58
2023-11-28T19:26:54.100Z,35.13
2023-11-28T19:29:21.398Z,31.73
2023-11-28T19:31:50.113Z,26.40
2023-11-28T19:34:17.393Z,27.42
2023-11-28T19:36:44.665Z,32.38
2023-11-28T19:39:12.044Z,30.30
2023-11-28T19:41:39.476Z,33.15
2023-11-28T19:44:06.788Z,29.85
2023-11-28T19:46:34.076Z,25.45
2023-11-28T19:49:02.767Z,28.05
2023-11-28T19:51:30.137Z,25.42
2023-11-28T19:53:57.801Z,26.77
2023-11-28T19:56:25.181Z,24.60
2023-11-28T19:58:52.527Z,21.05
2023-11-28T20:01:19.840Z,21.48
2023-11-28T20:03:47.209Z,22.27
2023-11-28T20:06:15.954Z,23.95
2023-11-28T20:08:43.317Z,20.10
2023-11-28T20:11:10.761Z,20.40
2023-11-28T20:13:38.126Z,19.08
2023-11-28T20:16:05.834Z,20.20
2023-11-28T20:18:33.205Z,20.88
2023-11-28T20:21:00.583Z,19.95
2023-11-28T20:23:29.419Z,18.38
2023-11-28T20:28:24.193Z,22.60
2023-11-28T20:30:51.812Z,17.50
2023-11-28T20:33:19.229Z,20.80
2023-11-28T20:35:46.504Z,19.73
2023-11-28T20:38:13.748Z,16.77
2023-11-28T20:40:42.452Z,22.65
2023-11-28T20:43:09.694Z,19.20
2023-11-28T20:45:36.999Z,20.38
2023-11-28T20:48:04.397Z,20.73
2023-11-28T20:50:31.989Z,15.77
2023-11-28T20:52:59.332Z,16.40
2023-11-28T20:55:26.716Z,17.60
2023-11-28T20:57:55.471Z,19.67
2023-11-28T21:00:22.845Z,15.23
2023-11-28T21:02:50.169Z,14.07
2023-11-28T21:05:17.549Z,13.25
2023-11-28T21:07:44.961Z,12.93
2023-11-28T21:10:12.594Z,14.40
2023-11-28T21:12:39.879Z,12.70
2023-11-28T21:15:09.933Z,13.27
2023-11-28T21:17:37.325Z,12.13
2023-11-28T21:20:06.065Z,16.60
2023-11-28T21:22:33.434Z,11.70
2023-11-28T21:25:00.679Z,11.50
2023-11-28T21:27:27.978Z,12.00
2023-11-28T21:29:55.347Z,12.73
2023-11-28T21:32:24.067Z,13.38
2023-11-28T21:34:51.360Z,12.35
2023-11-28T21:37:18.791Z,15.45
2023-11-28T21:39:46.106Z,9.98
2023-11-28T21:42:13.346Z,11.32
2023-11-28T21:44:42.523Z,12.80
2023-11-28T21:47:11.152Z,11.40
2023-11-28T21:49:40.084Z,12.68
2023-11-28T21:52:07.398Z,12.93
2023-11-28T21:54:34.688Z,10.85
2023-11-28T21:57:01.953Z,11.48
2023-11-28T21:59:29.722Z,13.38
2023-11-28T22:01:57.161Z,11.73
2023-11-28T22:04:24.572Z,11.38
2023-11-28T22:06:53.244Z,12.18
2023-11-28T22:09:20.640Z,10.57
2023-11-28T22:11:47.973Z,9.85
2023-11-28T22:14:15.252Z,12.80
2023-11-28T22:16:42.734Z,11.00
2023-11-28T22:19:10.132Z,14.23
2023-11-28T22:21:37.470Z,9.48
2023-11-28T22:24:06.796Z,10.88
2023-11-28T22:26:34.060Z,10.38
2023-11-28T22:29:01.426Z,10.80
2023-11-28T22:31:28.845Z,11.32
2023-11-28T22:33:56.141Z,10.00
2023-11-28T22:36:23.403Z,9.90
2023-11-28T22:38:50.684Z,11.20
2023-11-28T22:41:19.425Z,12.20
2023-11-28T22:43:46.752Z,11.40
2023-11-28T22:46:14.184Z,10.32
2023-11-28T22:48:42.264Z,10.95
2023-11-28T22:51:10.063Z,12.88
2023-11-28T22:53:37.485Z,10.40
2023-11-28T22:56:09.063Z,9.65
2023-11-28T22:58:37.770Z,10.82
2023-11-28T23:01:05.155Z,10.18
2023-11-28T23:03:32.572Z,10.00
2023-11-28T23:05:59.903Z,10.23
2023-11-28T23:08:27.225Z,9.25
2023-11-28T23:10:54.524Z,10.75
2023-11-28T23:13:21.952Z,10.75
2023-11-28T23:15:50.636Z,10.55
2023-11-28T23:18:17.886Z,11.25
2023-11-28T23:20:45.416Z,10.30
2023-11-28T23:23:12.721Z,10.60
2023-11-28T23:25:40.041Z,11.85
2023-11-28T23:28:07.418Z,11.73
2023-11-28T23:30:35.029Z,12.32
2023-11-28T23:33:03.859Z,11.27
2023-11-28T23:37:58.209Z,11.50
2023-11-28T23:40:25.427Z,11.80
2023-11-28T23:42:53.268Z,10.02
2023-11-28T23:45:21.059Z,11.10
2023-11-28T23:47:48.858Z,10.90
2023-11-28T23:50:18.311Z,12.98
2023-11-28T23:52:45.639Z,11.90
2023-11-28T23:55:13.018Z,10.48
2023-11-28T23:57:40.484Z,12.38
